KATY/ATY METAR and TAF weather

Enter ICAO airport designator
Station Type Date Time Source
KATY METAR 2019/06/16 06:35 UTC NOAA

KATY 160635Z AUTO 00000KT FEW005 15/14 A2982 RMK AO2 T01500144 $


Station Type Date Time Source
KATY Decoded METAR 2019/06/16 06:35 UTC NOAA

WATERTOWN MUNICIPAL AIRPORT, SD, United States (KATY) 44-54N 097-09W 532M
Jun 16, 2019 - 02:35 AM EDT / 2019.06.16 0635 UTC
Wind: Calm:0
Sky conditions: mostly clear
Temperature: 59.0 F (15.0 C)
Dew Point: 57.9 F (14.4 C)
Relative Humidity: 96%
Pressure (altimeter): 29.82 in. Hg (1009 hPa)
ob: KATY 160635Z AUTO 00000KT FEW005 15/14 A2982 RMK AO2 T01500144
cycle: 6

Station Type Date Time Source
KATY TAF 2019/06/16 06:24 UTC NOAA

TAF KATY 160522Z 1606/1706 VRB04KT P6SM SCT045
FM161000 32006KT 1SM BR SCT006
FM161100 33007KT 1/2SM FG BKN002
FM161400 33007KT P6SM BKN050
FM170100 36006KT P6SM SCT180

Example: see airport list